createdAt,value
2023-03-23T16:00:29.422Z,99916.63
2023-03-23T16:03:59.810Z,99919.47
2023-03-23T16:07:03.011Z,99917.66
2023-03-23T16:10:07.875Z,99919.72
2023-03-23T16:13:11.184Z,99926.88
2023-03-23T16:16:19.646Z,99916.41
2023-03-23T16:19:24.668Z,99931.81
2023-03-23T16:22:27.594Z,99929.06
2023-03-23T16:25:31.450Z,99934.72
2023-03-23T16:28:34.825Z,99934.31
2023-03-23T16:31:37.569Z,99941.75
2023-03-23T16:34:40.723Z,99938.47
2023-03-23T16:38:07.660Z,99946.88
2023-03-23T16:41:11.659Z,99948.19
2023-03-23T16:44:14.656Z,99938.16
2023-03-23T16:47:19.094Z,99944.66
2023-03-23T16:50:22.240Z,99937.53
2023-03-23T16:53:25.182Z,99936.44
2023-03-23T16:56:28.048Z,99932.84
2023-03-23T16:59:30.971Z,99941.03
2023-03-23T17:02:33.922Z,99931.00
2023-03-23T17:05:37.639Z,99930.81
2023-03-23T17:08:40.389Z,99936.72
2023-03-23T17:11:43.179Z,99944.06
2023-03-23T17:14:46.125Z,99943.50
2023-03-23T17:17:48.949Z,99944.00
2023-03-23T17:20:53.811Z,99930.59
2023-03-23T17:23:56.703Z,99946.91
2023-03-23T17:26:59.432Z,99944.31
2023-03-23T17:30:03.155Z,99950.97
2023-03-23T17:33:07.335Z,99953.97
2023-03-23T17:36:10.804Z,99950.44
2023-03-23T17:39:14.593Z,99962.56
2023-03-23T17:42:18.296Z,99973.72
2023-03-23T17:45:21.418Z,99974.72
2023-03-23T17:48:24.179Z,99980.22
2023-03-23T17:51:27.422Z,99971.13
2023-03-23T17:54:31.182Z,99981.44
2023-03-23T17:57:35.284Z,99979.22
2023-03-23T18:00:38.899Z,99985.69
2023-03-23T18:03:42.543Z,99983.91
2023-03-23T18:06:47.204Z,99998.41
2023-03-23T18:09:50.744Z,99995.38
2023-03-23T18:12:53.741Z,100010.03
2023-03-23T18:15:58.232Z,100007.78
2023-03-23T18:19:01.289Z,100012.78
2023-03-23T18:22:04.260Z,100020.00
2023-03-23T18:25:07.227Z,100011.13
2023-03-23T18:28:10.193Z,100012.72
2023-03-23T18:31:16.212Z,100014.53
2023-03-23T18:34:19.337Z,100017.91
2023-03-23T18:37:22.329Z,100010.28
2023-03-23T18:40:25.332Z,100015.50
2023-03-23T18:43:28.405Z,100016.44
2023-03-23T18:46:31.692Z,100014.59
2023-03-23T18:49:34.967Z,100016.28
2023-03-23T18:52:38.782Z,100020.66
2023-03-23T18:55:45.584Z,100024.25
2023-03-23T18:58:52.539Z,100026.00
2023-03-23T19:01:55.874Z,100023.91
2023-03-23T19:04:59.164Z,100031.91
2023-03-23T19:08:03.772Z,100026.09
2023-03-23T19:11:08.430Z,100032.03
2023-03-23T19:14:12.097Z,100030.41
2023-03-23T19:17:15.149Z,100029.06
2023-03-23T19:20:31.555Z,100031.97
2023-03-23T19:23:40.521Z,100032.66
2023-03-23T19:26:46.498Z,100025.09
2023-03-23T19:29:49.792Z,100027.09
2023-03-23T19:32:53.099Z,100024.63
2023-03-23T19:36:07.371Z,100025.06
2023-03-23T19:39:15.535Z,100026.81
2023-03-23T19:42:20.469Z,100025.34
2023-03-23T19:45:23.796Z,100018.00
2023-03-23T19:48:26.958Z,100030.09
2023-03-23T19:51:30.838Z,100029.25
2023-03-23T19:54:35.801Z,100026.59
2023-03-23T19:57:39.641Z,100028.75
2023-03-23T20:03:46.752Z,100025.09
2023-03-23T20:06:51.123Z,100034.41
2023-03-23T20:09:54.618Z,100032.03
2023-03-23T20:13:00.012Z,100041.75
2023-03-23T20:16:03.253Z,100041.00
2023-03-23T20:19:06.398Z,100036.97
2023-03-23T20:22:09.599Z,100043.00
2023-03-23T20:25:13.387Z,100044.13
2023-03-23T20:28:16.764Z,100049.38
2023-03-23T20:31:26.564Z,100042.75
2023-03-23T20:34:30.808Z,100044.47
2023-03-23T20:37:34.879Z,100044.53
2023-03-23T20:40:37.933Z,100044.97
2023-03-23T20:43:43.177Z,100045.19
2023-03-23T20:46:48.197Z,100047.06
2023-03-23T20:49:53.184Z,100045.97
2023-03-23T20:52:58.044Z,100054.34
2023-03-23T20:56:05.600Z,100045.97
2023-03-23T20:59:09.254Z,100049.66
2023-03-23T21:02:17.363Z,100044.59
2023-03-23T21:05:20.705Z,100046.75
2023-03-23T21:08:23.968Z,100045.25
2023-03-23T21:11:27.413Z,100039.56
2023-03-23T21:14:30.424Z,100046.47
2023-03-23T21:17:33.378Z,100039.34
2023-03-23T21:20:37.805Z,100047.31
2023-03-23T21:23:46.586Z,100045.91
2023-03-23T21:26:50.225Z,100048.25
2023-03-23T21:30:00.319Z,100052.94
2023-03-23T21:33:03.290Z,100059.06
2023-03-23T21:36:07.099Z,100057.28
2023-03-23T21:39:10.621Z,100058.09
2023-03-23T21:42:16.586Z,100063.38
2023-03-23T21:45:21.124Z,100063.38
2023-03-23T21:48:25.313Z,100071.16
2023-03-23T21:51:29.925Z,100063.22
2023-03-23T21:54:34.383Z,100061.75
2023-03-23T21:57:37.306Z,100066.53
2023-03-23T22:00:41.386Z,100071.75
2023-03-23T22:03:44.935Z,100059.72
2023-03-23T22:06:48.127Z,100064.59
2023-03-23T22:09:51.540Z,100071.59
2023-03-23T22:12:55.589Z,100070.91
2023-03-23T22:16:01.296Z,100063.47
2023-03-23T22:19:04.435Z,100061.88
2023-03-23T22:22:07.689Z,100066.53
2023-03-23T22:25:10.743Z,100065.72
2023-03-23T22:28:13.836Z,100063.63
2023-03-23T22:31:25.082Z,100063.69
2023-03-23T22:34:28.332Z,100064.06
2023-03-23T22:37:31.159Z,100067.63
2023-03-23T22:40:33.923Z,100068.00
2023-03-23T22:43:37.792Z,100062.88
2023-03-23T22:46:41.464Z,100073.19
2023-03-23T22:49:44.304Z,100063.69
2023-03-23T22:52:47.637Z,100060.47
2023-03-23T22:55:53.207Z,100062.94
2023-03-23T22:58:58.935Z,100063.25
2023-03-23T23:02:01.862Z,100056.31
2023-03-23T23:05:05.482Z,100052.94
2023-03-23T23:08:12.495Z,100047.44
2023-03-23T23:11:17.478Z,100045.00
2023-03-23T23:14:20.256Z,100040.66
2023-03-23T23:17:23.005Z,100040.81
2023-03-23T23:20:26.828Z,100043.56
2023-03-23T23:23:29.623Z,100045.03
2023-03-23T23:26:32.437Z,100040.63
2023-03-23T23:29:35.224Z,100042.28
2023-03-23T23:32:38.471Z,100042.25
2023-03-23T23:35:41.885Z,100039.38
2023-03-23T23:38:45.255Z,100033.34
2023-03-23T23:41:48.256Z,100038.53
2023-03-23T23:44:51.054Z,100041.47
2023-03-23T23:47:54.231Z,100037.56
2023-03-23T23:50:57.096Z,100049.25
2023-03-23T23:54:01.670Z,100050.34
2023-03-23T23:57:05.860Z,100058.28
